Time;durP1;ratioP1;P1;durP2;ratioP2;P2;SDS_P1;SDS_P2;PMS_P1;PMS_P2;Temp;Humidity;BMP_temperature;BMP_pressure;BME280_temperature;BME280_humidity;BME280_pressure;Samples;Min_cycle;Max_cycle;Signal;HPM_P1;HPM_P2
2022/06/24 00:01:55;;;;;;;5.57;5.07;;;21.90;88.90;;;;;;4990320;28;20030;-64
2022/06/24 00:04:25;;;;;;;6.82;5.50;;;21.70;90.80;;;;;;4991177;28;20049;-64
2022/06/24 00:06:51;;;;;;;6.25;5.65;;;21.60;91.20;;;;;;4978879;28;20406;-64
2022/06/24 00:09:18;;;;;;;7.15;5.35;;;21.40;91.80;;;;;;4988385;28;20043;-64
2022/06/24 00:11:44;;;;;;;5.93;5.25;;;21.20;92.20;;;;;;4990373;28;20046;-64
2022/06/24 00:14:15;;;;;;;7.15;5.25;;;21.10;92.90;;;;;;4986648;28;20093;-64
2022/06/24 00:17:06;;;;;;;6.85;5.72;;;21.00;93.40;;;;;;4982696;28;20042;-64
2022/06/24 00:19:51;;;;;;;6.65;5.65;;;20.90;93.50;;;;;;4989569;28;20088;-64
2022/06/24 00:22:17;;;;;;;6.72;5.60;;;21.00;92.50;;;;;;4980949;28;20039;-64
2022/06/24 00:24:43;;;;;;;11.10;5.90;;;21.00;92.60;;;;;;4975877;28;20406;-64
2022/06/24 00:27:19;;;;;;;9.82;6.22;;;20.90;92.90;;;;;;4991464;28;20042;-63
2022/06/24 00:29:46;;;;;;;7.43;5.35;;;20.90;93.60;;;;;;4991885;28;20031;-64
2022/06/24 00:32:11;;;;;;;8.32;5.72;;;20.90;93.20;;;;;;4983489;28;20035;-64
2022/06/24 00:34:38;;;;;;;6.68;5.63;;;20.80;93.60;;;;;;4993314;28;20128;-64
2022/06/24 00:37:25;;;;;;;8.07;5.70;;;20.70;93.70;;;;;;4995373;28;20093;-63
2022/06/24 00:39:52;;;;;;;8.82;5.38;;;20.70;94.30;;;;;;4989674;28;20117;-64
2022/06/24 00:42:18;;;;;;;6.15;5.60;;;20.70;93.90;;;;;;4989773;28;20034;-64
2022/06/24 00:45:06;;;;;;;8.63;5.13;;;20.60;94.30;;;;;;4993843;28;20030;-64
2022/06/24 00:47:33;;;;;;;5.93;5.30;;;20.70;94.40;;;;;;4987651;28;20081;-64
2022/06/24 00:50:02;;;;;;;6.18;5.40;;;20.60;94.10;;;;;;4984911;28;20491;-63
2022/06/24 00:52:27;;;;;;;6.53;5.60;;;20.50;94.60;;;;;;4994348;28;20034;-63
2022/06/24 00:54:53;;;;;;;7.88;5.70;;;20.40;94.80;;;;;;4994851;28;20521;-63
2022/06/24 00:57:19;;;;;;;6.82;5.50;;;20.30;95.10;;;;;;4989134;28;20030;-64
2022/06/24 00:59:47;;;;;;;8.52;5.80;;;20.40;95.00;;;;;;4988901;28;20091;-64
2022/06/24 01:02:16;;;;;;;5.93;5.32;;;20.30;95.30;;;;;;4994215;28;20387;-64
2022/06/24 01:04:42;;;;;;;5.93;5.30;;;20.20;95.80;;;;;;4986429;28;20057;-64
2022/06/24 01:07:08;;;;;;;6.43;5.68;;;20.20;95.90;;;;;;4981684;28;20141;-64
2022/06/24 01:09:33;;;;;;;7.57;5.70;;;20.00;96.30;;;;;;4994214;28;20121;-64
2022/06/24 01:11:59;;;;;;;6.70;6.03;;;20.10;96.00;;;;;;4993720;28;20049;-64
2022/06/24 01:14:25;;;;;;;7.55;5.75;;;20.00;95.60;;;;;;4979538;28;20050;-64
2022/06/24 01:16:50;;;;;;;7.78;6.25;;;20.10;95.60;;;;;;4990797;28;20031;-64
2022/06/24 01:19:16;;;;;;;7.68;6.10;;;20.10;95.50;;;;;;4993398;28;20065;-63
2022/06/24 01:21:44;;;;;;;7.20;6.13;;;20.00;95.60;;;;;;4984472;28;20049;-64
2022/06/24 01:24:20;;;;;;;6.30;5.70;;;20.00;95.60;;;;;;4992454;28;20085;-63
2022/06/24 01:26:55;;;;;;;7.20;5.93;;;20.00;96.10;;;;;;4994294;28;20398;-64
2022/06/24 01:29:21;;;;;;;11.00;5.97;;;19.90;96.10;;;;;;4989787;28;20516;-64
2022/06/24 01:31:48;;;;;;;7.53;5.85;;;19.80;96.10;;;;;;4985991;28;20046;-63
2022/06/24 01:34:16;;;;;;;9.60;6.05;;;19.70;96.30;;;;;;4993554;28;20438;-64
2022/06/24 01:36:42;;;;;;;6.65;5.80;;;19.60;96.50;;;;;;4993021;28;20066;-64
2022/06/24 01:39:08;;;;;;;7.40;6.03;;;19.50;96.70;;;;;;4981021;28;20069;-64
2022/06/24 01:41:34;;;;;;;10.13;5.95;;;19.50;96.70;;;;;;4990973;28;20085;-63
2022/06/24 01:44:01;;;;;;;10.05;6.25;;;19.50;96.80;;;;;;5048950;23;20058;-68
2022/06/24 01:46:28;;;;;;;8.40;5.80;;;19.50;96.80;;;;;;4959681;28;20097;-68
2022/06/24 01:48:53;;;;;;;11.32;6.35;;;19.50;96.80;;;;;;4971171;28;20045;-68
2022/06/24 01:51:21;;;;;;;8.90;6.13;;;19.50;96.60;;;;;;4975970;28;20446;-68
2022/06/24 01:53:46;;;;;;;9.48;6.53;;;19.50;96.90;;;;;;4963949;28;20090;-68
2022/06/24 01:56:12;;;;;;;7.55;6.00;;;19.50;96.80;;;;;;4979177;28;20063;-67
2022/06/24 01:58:38;;;;;;;7.88;6.55;;;19.50;97.20;;;;;;4991366;28;20035;-67
2022/06/24 02:01:03;;;;;;;7.93;6.43;;;19.50;97.40;;;;;;4990334;28;20049;-67
2022/06/24 02:03:34;;;;;;;7.40;6.65;;;19.50;97.30;;;;;;4962846;28;20043;-67
2022/06/24 02:06:02;;;;;;;9.13;6.68;;;19.50;97.80;;;;;;4992668;28;20541;-67
2022/06/24 02:08:28;;;;;;;7.53;6.32;;;19.40;97.80;;;;;;4976234;28;20116;-67
2022/06/24 02:13:39;;;;;;;9.07;6.13;;;19.50;97.70;;;;;;4990567;28;20047;-68
2022/06/24 02:16:05;;;;;;;7.13;6.00;;;19.50;97.80;;;;;;4975711;28;20038;-68
2022/06/24 02:18:32;;;;;;;6.50;5.90;;;19.60;97.70;;;;;;4984883;28;20554;-68
2022/06/24 02:20:59;;;;;;;7.93;6.20;;;19.70;97.50;;;;;;4983492;28;20051;-67
2022/06/24 02:23:26;;;;;;;7.00;6.22;;;19.80;97.20;;;;;;4975652;28;20050;-68
2022/06/24 02:25:53;;;;;;;8.63;6.63;;;19.90;97.30;;;;;;4975782;28;20125;-68
2022/06/24 02:28:18;;;;;;;7.45;6.43;;;20.00;97.00;;;;;;4981211;28;20491;-68
2022/06/24 02:30:46;;;;;;;8.90;6.10;;;20.00;96.90;;;;;;4987451;28;20032;-68
2022/06/24 02:33:12;;;;;;;8.18;6.28;;;20.00;97.10;;;;;;4974927;28;20113;-68
2022/06/24 02:35:40;;;;;;;7.80;6.60;;;20.00;97.90;;;;;;4994205;28;20064;-68
2022/06/24 02:38:07;;;;;;;9.13;6.80;;;20.00;98.80;;;;;;4966016;28;20061;-68
2022/06/24 02:40:45;;;;;;;7.25;6.20;;;20.00;99.00;;;;;;4961057;28;20045;-69
2022/06/24 02:43:18;;;;;;;7.38;6.22;;;19.90;99.20;;;;;;4975550;28;20053;-69
2022/06/24 02:45:56;;;;;;;7.72;6.60;;;19.90;99.40;;;;;;4971633;28;20046;-69
2022/06/24 02:48:22;;;;;;;8.30;7.20;;;20.00;99.50;;;;;;4979631;28;20125;-69
2022/06/24 02:50:59;;;;;;;9.57;7.13;;;20.00;99.00;;;;;;4998787;28;20073;-69
2022/06/24 02:53:26;;;;;;;8.18;7.20;;;20.00;99.10;;;;;;4987044;28;20042;-69
2022/06/24 02:55:54;;;;;;;7.32;6.63;;;20.00;98.80;;;;;;4987352;28;20078;-69
2022/06/24 02:58:21;;;;;;;10.40;7.35;;;20.00;99.20;;;;;;4989921;28;20039;-69
2022/06/24 03:00:46;;;;;;;9.98;7.35;;;19.70;99.90;;;;;;4978163;28;20050;-69
2022/06/24 03:03:14;;;;;;;9.38;7.35;;;19.70;99.90;;;;;;5025949;23;20052;-69
2022/06/24 03:05:40;;;;;;;9.15;8.00;;;19.70;99.90;;;;;;4986952;28;20061;-69
2022/06/24 03:08:08;;;;;;;8.50;7.70;;;19.70;99.90;;;;;;4990963;28;20513;-69
2022/06/24 03:10:33;;;;;;;8.60;7.72;;;19.60;99.90;;;;;;4974152;28;20495;-69
2022/06/24 03:12:59;;;;;;;9.48;8.32;;;19.60;99.90;;;;;;4988021;28;20125;-69
2022/06/24 03:15:25;;;;;;;8.63;7.72;;;19.60;99.90;;;;;;4977306;28;20057;-69
2022/06/24 03:18:21;;;;;;;11.00;8.35;;;19.70;99.90;;;;;;5015831;28;20022;-68
2022/06/24 03:25:03;;;;;;;9.32;8.43;;;19.80;99.90;;;;;;5388267;23;20053;-68
2022/06/24 03:27:29;;;;;;;14.93;9.15;;;19.70;99.90;;;;;;4984797;28;20110;-68
2022/06/24 03:29:54;;;;;;;10.38;9.25;;;19.70;99.90;;;;;;4991606;28;20122;-69
2022/06/24 03:32:21;;;;;;;12.10;8.82;;;19.70;99.90;;;;;;4992207;28;20478;-69
2022/06/24 03:34:47;;;;;;;10.18;9.20;;;19.70;99.90;;;;;;4985567;28;20170;-69
2022/06/24 03:37:13;;;;;;;11.35;9.18;;;19.70;99.90;;;;;;4979569;28;20058;-69
2022/06/24 03:39:39;;;;;;;9.88;8.98;;;19.60;99.90;;;;;;4994710;28;20505;-69
2022/06/24 03:42:05;;;;;;;9.85;8.75;;;19.60;99.90;;;;;;4953002;28;20445;-69
2022/06/24 03:44:33;;;;;;;9.88;8.88;;;19.60;99.90;;;;;;4973597;28;20050;-69
2022/06/24 03:47:01;;;;;;;10.30;9.20;;;19.60;99.90;;;;;;4990962;28;20510;-69
2022/06/24 03:55:51;;;;;;;9.73;8.73;;;19.60;99.90;;;;;;5011305;23;20124;-67
2022/06/24 03:58:20;;;;;;;10.90;9.80;;;19.50;99.90;;;;;;4988095;28;20393;-67
2022/06/24 04:00:46;;;;;;;12.35;9.57;;;19.30;99.90;;;;;;4977696;28;20044;-67
2022/06/24 04:03:12;;;;;;;10.20;9.20;;;19.40;99.90;;;;;;5011009;28;20117;-67
2022/06/24 04:05:37;;;;;;;11.90;10.75;;;19.40;99.90;;;;;;5016232;28;20117;-67
2022/06/24 04:15:14;;;;;;;11.38;9.43;;;19.70;99.90;;;;;;4990629;28;20494;-68
2022/06/24 04:17:40;;;;;;;11.50;8.70;;;19.70;99.90;;;;;;4972965;28;20096;-68
2022/06/24 04:20:07;;;;;;;12.18;8.63;;;19.80;99.90;;;;;;4976831;28;20082;-68
2022/06/24 04:22:32;;;;;;;11.38;9.13;;;19.90;99.90;;;;;;4977892;28;20039;-68
2022/06/24 04:24:58;;;;;;;12.27;9.35;;;19.90;99.90;;;;;;4971159;28;20034;-68
2022/06/24 04:27:23;;;;;;;11.93;10.23;;;20.00;99.90;;;;;;4960990;28;20144;-68
2022/06/24 04:33:31;;;;;;;14.55;12.25;;;20.20;99.90;;;;;;5174816;23;20573;-68
2022/06/24 04:35:56;;;;;;;14.82;13.32;;;20.30;99.90;;;;;;4950880;28;20035;-68
2022/06/24 04:38:22;;;;;;;19.38;14.00;;;20.40;99.90;;;;;;4960237;28;20051;-68
2022/06/24 04:40:48;;;;;;;23.98;16.27;;;20.60;99.90;;;;;;4958719;28;20466;-68
2022/06/24 04:43:14;;;;;;;20.25;16.45;;;20.60;99.90;;;;;;4974021;28;20035;-68
2022/06/24 04:45:40;;;;;;;21.85;17.80;;;20.70;99.90;;;;;;4938319;29;20097;-68
2022/06/24 04:57:55;;;;;;;12.23;8.70;;;21.10;99.90;;;;;;5135251;23;20053;-68
2022/06/24 05:00:22;;;;;;;10.90;8.07;;;21.20;99.90;;;;;;4968398;28;20061;-68
2022/06/24 05:02:49;;;;;;;10.00;7.22;;;21.20;99.90;;;;;;4986100;28;20046;-68
2022/06/24 05:05:15;;;;;;;8.48;7.07;;;21.20;99.90;;;;;;4989925;28;20043;-68
2022/06/24 05:07:40;;;;;;;7.28;6.15;;;21.20;99.90;;;;;;4970523;28;20042;-68
2022/06/24 05:10:07;;;;;;;7.13;6.32;;;21.10;99.90;;;;;;5005988;28;20576;-69
2022/06/24 05:12:33;;;;;;;8.93;6.25;;;21.10;99.90;;;;;;4986895;28;20435;-69
2022/06/24 05:14:59;;;;;;;7.60;6.45;;;21.10;99.90;;;;;;4966550;28;20524;-69
2022/06/24 05:18:16;;;;;;;8.45;6.95;;;21.00;99.90;;;;;;4988471;28;20038;-68
2022/06/24 05:21:20;;;;;;;8.13;7.30;;;20.90;99.90;;;;;;4918413;29;20051;-68
2022/06/24 05:23:46;;;;;;;8.75;7.22;;;20.80;99.90;;;;;;4896124;28;20054;-68
2022/06/24 05:26:12;;;;;;;10.85;7.60;;;20.70;99.90;;;;;;4969894;28;20034;-68
2022/06/24 05:28:37;;;;;;;11.02;7.75;;;20.60;99.90;;;;;;4971926;28;20097;-68
2022/06/24 05:31:03;;;;;;;8.93;7.90;;;20.60;99.90;;;;;;4983598;28;20026;-68
2022/06/24 05:33:30;;;;;;;9.27;8.18;;;20.50;99.90;;;;;;4986538;28;20120;-69
2022/06/24 05:35:58;;;;;;;11.77;8.25;;;20.50;99.90;;;;;;4971301;28;20121;-68
2022/06/24 05:38:23;;;;;;;10.32;7.43;;;20.50;99.90;;;;;;4972420;28;20065;-69
2022/06/24 05:40:50;;;;;;;8.50;7.30;;;20.50;99.90;;;;;;4992085;28;20041;-69
2022/06/24 05:43:16;;;;;;;9.25;6.90;;;20.50;99.90;;;;;;4992371;28;20046;-68
2022/06/24 05:56:28;;;;;;;10.82;6.97;;;20.90;99.90;;;;;;4978903;28;20042;-68
2022/06/24 05:58:54;;;;;;;9.20;7.07;;;20.90;99.90;;;;;;4985796;28;20120;-68
2022/06/24 06:01:20;;;;;;;11.35;7.78;;;21.00;99.90;;;;;;4968636;28;20442;-68
2022/06/24 06:03:47;;;;;;;8.80;7.25;;;21.00;99.90;;;;;;4970692;28;20537;-68
2022/06/24 06:06:13;;;;;;;8.60;7.25;;;21.10;99.90;;;;;;4981778;28;20034;-68
2022/06/24 06:08:40;;;;;;;10.38;7.80;;;21.10;99.90;;;;;;4961824;28;20113;-68
2022/06/24 06:11:12;;;;;;;9.48;7.65;;;21.10;99.90;;;;;;4955272;28;20065;-70
2022/06/24 06:13:42;;;;;;;12.02;8.07;;;21.20;99.90;;;;;;4984515;28;20467;-68
2022/06/24 06:16:08;;;;;;;11.45;8.13;;;21.20;99.90;;;;;;4979661;28;20042;-68
2022/06/24 06:22:15;;;;;;;18.92;8.75;;;21.20;99.90;;;;;;5010880;28;20034;-68
2022/06/24 06:29:06;;;;;;;14.25;9.38;;;21.10;99.90;;;;;;5017393;28;20042;-69
2022/06/24 06:31:32;;;;;;;13.05;9.50;;;21.10;99.90;;;;;;4988475;28;20097;-68
2022/06/24 06:33:58;;;;;;;10.00;9.00;;;21.10;99.90;;;;;;4985345;28;20031;-68
2022/06/24 06:36:26;;;;;;;17.15;9.63;;;21.10;99.90;;;;;;4983274;28;20058;-67
2022/06/24 06:38:52;;;;;;;12.80;9.43;;;21.10;99.90;;;;;;4952492;28;20565;-68
2022/06/24 06:41:18;;;;;;;12.60;9.85;;;21.20;99.90;;;;;;4986704;28;20042;-69
2022/06/24 06:43:43;;;;;;;13.32;9.80;;;21.20;99.90;;;;;;4977259;28;20041;-69
2022/06/24 06:46:10;;;;;;;12.27;10.00;;;21.10;99.90;;;;;;4964427;28;20045;-69
2022/06/24 06:48:36;;;;;;;10.20;9.13;;;21.10;99.90;;;;;;4973167;28;20510;-68
2022/06/24 06:51:02;;;;;;;11.80;9.80;;;21.00;99.90;;;;;;4986002;28;20048;-68
2022/06/24 06:53:28;;;;;;;10.15;9.13;;;21.10;99.90;;;;;;4965524;28;20034;-67
2022/06/24 06:55:54;;;;;;;12.65;9.20;;;21.10;99.90;;;;;;4969730;28;20042;-68
2022/06/24 06:58:25;;;;;;;11.55;9.35;;;21.10;99.90;;;;;;4973792;28;20070;-68
2022/06/24 07:00:52;;;;;;;15.07;9.63;;;21.10;99.90;;;;;;4956834;28;20034;-68
2022/06/24 07:03:18;;;;;;;18.05;10.20;;;21.00;99.90;;;;;;4968015;28;20092;-68
2022/06/24 07:05:44;;;;;;;13.00;10.25;;;21.00;99.90;;;;;;4982528;28;20030;-68
2022/06/24 07:08:12;;;;;;;14.75;10.88;;;21.00;99.90;;;;;;4978332;28;20390;-68
2022/06/24 07:10:39;;;;;;;15.10;11.85;;;20.90;99.90;;;;;;4969865;28;20034;-68
2022/06/24 07:13:06;;;;;;;14.05;11.57;;;20.90;99.90;;;;;;4987333;28;20033;-67
2022/06/24 07:30:59;;;;;;;20.33;14.43;;;21.10;99.90;;;;;;5015908;28;20053;-66
2022/06/24 07:34:05;;;;;;;15.40;13.80;;;21.10;99.90;;;;;;5416864;23;20057;-68
2022/06/24 07:36:31;;;;;;;17.50;14.52;;;21.10;99.90;;;;;;4968632;28;20043;-67
2022/06/24 07:38:56;;;;;;;16.27;13.63;;;21.00;99.90;;;;;;4978927;28;20083;-71
2022/06/24 07:41:22;;;;;;;18.63;15.20;;;21.00;99.90;;;;;;4967836;28;20176;-71
2022/06/24 07:43:48;;;;;;;16.30;14.00;;;21.00;99.90;;;;;;4966655;28;20043;-66
2022/06/24 07:46:13;;;;;;;18.10;15.30;;;21.10;99.90;;;;;;4956497;28;20035;-66
2022/06/24 07:48:39;;;;;;;17.15;15.35;;;21.10;99.90;;;;;;4990385;23;20041;-66
2022/06/24 07:51:13;;;;;;;20.35;15.13;;;21.10;99.90;;;;;;4987609;28;20038;-66
2022/06/24 07:53:39;;;;;;;18.80;14.98;;;21.00;99.90;;;;;;4990311;28;20043;-66
2022/06/24 07:58:49;;;;;;;19.50;15.45;;;21.00;99.90;;;;;;4986712;28;20038;-66
2022/06/24 08:01:16;;;;;;;18.60;15.65;;;21.00;99.90;;;;;;4986719;28;20038;-66
2022/06/24 08:03:42;;;;;;;18.42;16.50;;;21.00;99.90;;;;;;4990100;28;20069;-66
2022/06/24 08:06:07;;;;;;;19.25;17.15;;;21.00;99.90;;;;;;4990616;28;20069;-66
2022/06/24 08:08:33;;;;;;;21.05;16.98;;;21.00;99.90;;;;;;4990342;28;20045;-66
2022/06/24 08:10:58;;;;;;;19.30;16.45;;;21.00;99.90;;;;;;4988007;28;20030;-66
2022/06/24 08:13:24;;;;;;;18.83;16.88;;;21.00;99.90;;;;;;4991677;28;20055;-66
2022/06/24 08:15:50;;;;;;;19.27;17.15;;;21.00;99.90;;;;;;4973257;28;20069;-66
2022/06/24 08:18:17;;;;;;;19.13;16.95;;;20.90;99.90;;;;;;4991941;28;20481;-67
2022/06/24 08:20:42;;;;;;;19.15;17.08;;;20.90;99.90;;;;;;4989279;28;20088;-67
2022/06/24 08:23:08;;;;;;;20.40;18.30;;;21.00;99.90;;;;;;4986899;28;20113;-66
2022/06/24 08:25:33;;;;;;;20.10;17.92;;;20.90;99.90;;;;;;4995373;28;20132;-67
2022/06/24 08:27:59;;;;;;;20.40;17.65;;;21.00;99.90;;;;;;4991017;28;20071;-67
2022/06/24 08:30:25;;;;;;;19.23;17.10;;;21.00;99.90;;;;;;4989920;28;20046;-67
2022/06/24 08:32:51;;;;;;;20.20;18.05;;;21.00;99.90;;;;;;4990094;28;20563;-67
2022/06/24 08:35:17;;;;;;;21.60;18.65;;;21.10;99.90;;;;;;4983844;28;20031;-66
2022/06/24 08:37:42;;;;;;;20.33;18.13;;;21.10;99.90;;;;;;4988383;28;20054;-67
2022/06/24 08:40:09;;;;;;;24.92;19.42;;;21.20;99.90;;;;;;4989776;28;20038;-67
2022/06/24 08:42:37;;;;;;;24.77;18.52;;;21.20;99.90;;;;;;4987388;28;20045;-66
2022/06/24 08:45:04;;;;;;;21.42;18.67;;;21.20;99.90;;;;;;4991363;28;20038;-67
2022/06/24 08:47:29;;;;;;;23.40;19.65;;;21.40;99.90;;;;;;4987916;28;20148;-66
2022/06/24 08:49:55;;;;;;;23.67;16.60;;;21.40;99.90;;;;;;4977507;28;20490;-67
2022/06/24 08:52:21;;;;;;;24.60;16.35;;;21.40;99.90;;;;;;4983589;28;20042;-66
2022/06/24 08:54:49;;;;;;;16.67;14.75;;;21.60;99.90;;;;;;4976351;28;20133;-66
2022/06/24 08:57:15;;;;;;;18.88;15.27;;;21.60;99.90;;;;;;4993669;28;20034;-66
2022/06/24 08:59:43;;;;;;;17.95;15.93;;;21.50;99.90;;;;;;4991200;28;20044;-67
2022/06/24 09:02:13;;;;;;;17.92;16.02;;;21.40;99.90;;;;;;4991221;28;20041;-66
2022/06/24 09:04:43;;;;;;;18.05;16.25;;;21.30;99.90;;;;;;4984202;28;20089;-67
2022/06/24 09:07:26;;;;;;;17.90;16.00;;;21.20;99.90;;;;;;4992963;28;20049;-67
2022/06/24 09:10:04;;;;;;;20.15;17.08;;;21.30;99.90;;;;;;4997127;28;20038;-67
2022/06/24 09:12:37;;;;;;;20.00;17.30;;;21.20;99.90;;;;;;4992352;28;20043;-66
2022/06/24 09:15:04;;;;;;;21.38;17.58;;;21.00;99.90;;;;;;4989806;28;20042;-66
2022/06/24 09:17:32;;;;;;;18.13;16.30;;;20.80;99.90;;;;;;4990792;28;20048;-66
2022/06/24 09:20:18;;;;;;;11.52;9.57;;;20.70;99.90;;;;;;4992951;28;20026;-66
2022/06/24 09:22:44;;;;;;;6.30;5.38;;;20.50;99.90;;;;;;4992107;28;20119;-66
2022/06/24 09:25:10;;;;;;;5.55;4.50;;;20.30;99.90;;;;;;4983980;28;20573;-66
2022/06/24 09:27:43;;;;;;;6.00;4.40;;;20.00;99.90;;;;;;4992212;28;20141;-66
2022/06/24 09:30:10;;;;;;;4.55;3.40;;;19.80;99.90;;;;;;4991798;28;20507;-65
2022/06/24 09:32:52;;;;;;;5.70;3.95;;;19.60;99.90;;;;;;4986127;28;20046;-66
2022/06/24 09:35:20;;;;;;;7.93;4.50;;;19.40;99.90;;;;;;4992560;28;20037;-66
2022/06/24 09:37:48;;;;;;;8.65;5.07;;;19.30;99.90;;;;;;4991964;28;20129;-66
2022/06/24 09:40:23;;;;;;;6.35;5.10;;;19.20;99.90;;;;;;4974301;28;20042;-67
2022/06/24 09:43:09;;;;;;;5.97;4.80;;;19.10;99.90;;;;;;4992212;28;20049;-67
2022/06/24 09:45:47;;;;;;;6.57;4.90;;;19.00;99.90;;;;;;4992459;28;20038;-65
2022/06/24 09:48:32;;;;;;;7.90;5.25;;;19.00;99.90;;;;;;4992761;28;20213;-67
2022/06/24 09:51:05;;;;;;;8.15;5.15;;;19.00;99.90;;;;;;4989432;28;20065;-67
2022/06/24 09:53:36;;;;;;;6.07;4.63;;;19.00;99.90;;;;;;4986120;28;20051;-67
2022/06/24 09:56:09;;;;;;;5.40;4.65;;;19.00;99.90;;;;;;4975967;28;20085;-67
2022/06/24 09:58:37;;;;;;;6.47;4.72;;;19.00;99.90;;;;;;4990387;28;20039;-67
2022/06/24 10:01:03;;;;;;;8.90;5.22;;;18.90;99.90;;;;;;4982112;28;20093;-67
2022/06/24 10:03:29;;;;;;;7.25;5.40;;;18.90;99.90;;;;;;4992471;28;20042;-67
2022/06/24 10:06:02;;;;;;;8.25;5.55;;;18.90;99.90;;;;;;4991429;28;20050;-67
2022/06/24 10:08:32;;;;;;;8.30;5.95;;;18.90;99.90;;;;;;4996299;28;20039;-67
2022/06/24 10:10:59;;;;;;;7.15;6.32;;;18.90;99.90;;;;;;4968190;28;20482;-67
2022/06/24 10:13:31;;;;;;;7.40;5.30;;;18.90;99.90;;;;;;4992201;28;20042;-66
2022/06/24 10:16:01;;;;;;;9.27;5.97;;;18.90;99.90;;;;;;4986284;28;20062;-67
2022/06/24 10:18:41;;;;;;;8.57;6.05;;;18.90;99.90;;;;;;4978925;28;20494;-67
2022/06/24 10:21:11;;;;;;;9.60;7.00;;;18.90;99.90;;;;;;4991930;28;20039;-66
2022/06/24 10:23:44;;;;;;;10.75;6.40;;;18.90;99.90;;;;;;4985178;28;20042;-67
2022/06/24 10:26:13;;;;;;;9.68;6.65;;;18.90;99.90;;;;;;4992175;28;20073;-67
2022/06/24 10:29:03;;;;;;;8.15;6.50;;;19.00;99.90;;;;;;4989164;28;20038;-66
2022/06/24 10:34:28;;;;;;;6.38;5.75;;;19.10;99.90;;;;;;4989333;28;20069;-67
2022/06/24 10:37:16;;;;;;;6.45;5.68;;;19.20;99.90;;;;;;4983895;28;20041;-67
2022/06/24 10:39:54;;;;;;;7.65;5.40;;;19.20;99.90;;;;;;4990337;28;20077;-67
2022/06/24 10:42:21;;;;;;;7.82;5.90;;;19.30;99.90;;;;;;4992689;28;20042;-67
2022/06/24 10:45:04;;;;;;;7.40;5.63;;;19.40;99.90;;;;;;4990183;28;20154;-68
2022/06/24 10:47:36;;;;;;;7.78;5.35;;;19.40;99.90;;;;;;4975713;28;20479;-68
2022/06/24 10:50:03;;;;;;;7.20;5.40;;;19.40;99.90;;;;;;4998045;28;20446;-67
2022/06/24 10:52:32;;;;;;;7.75;4.75;;;19.40;99.90;;;;;;4973943;28;20042;-67
2022/06/24 10:55:16;;;;;;;6.85;5.85;;;19.50;99.90;;;;;;4990834;28;20038;-68
2022/06/24 10:57:47;;;;;;;8.45;6.20;;;19.70;99.90;;;;;;4999507;28;20696;-68
2022/06/24 11:00:18;;;;;;;7.78;6.47;;;19.80;99.90;;;;;;4990773;28;20494;-67
2022/06/24 11:02:50;;;;;;;10.53;7.90;;;20.10;99.90;;;;;;4990368;28;20039;-67
2022/06/24 11:05:21;;;;;;;10.98;7.40;;;20.40;99.90;;;;;;4988046;28;20291;-68
2022/06/24 11:07:51;;;;;;;11.02;7.47;;;20.70;99.90;;;;;;4955822;28;20045;-67
2022/06/24 11:10:23;;;;;;;10.07;8.07;;;21.00;99.90;;;;;;4989909;28;20066;-67
2022/06/24 11:12:52;;;;;;;10.98;8.50;;;21.30;99.90;;;;;;4989590;28;20044;-68
2022/06/24 11:15:19;;;;;;;9.93;8.30;;;21.40;99.90;;;;;;4973102;28;20098;-67
2022/06/24 11:17:45;;;;;;;11.43;8.38;;;21.60;99.90;;;;;;4990545;28;20243;-68
2022/06/24 11:20:12;;;;;;;10.02;9.02;;;21.60;99.90;;;;;;4987146;28;20042;-67
2022/06/24 11:22:47;;;;;;;10.60;9.13;;;21.60;99.90;;;;;;4968794;28;20133;-67
2022/06/24 11:25:15;;;;;;;12.68;8.98;;;21.60;99.90;;;;;;4987637;28;20040;-67
2022/06/24 11:27:41;;;;;;;9.02;8.13;;;21.50;99.90;;;;;;4972858;28;20046;-67
2022/06/24 11:30:08;;;;;;;11.88;9.13;;;21.50;99.90;;;;;;4978699;28;20129;-66
2022/06/24 11:32:59;;;;;;;12.90;9.00;;;21.50;99.90;;;;;;4970262;28;20038;-68
2022/06/24 11:35:26;;;;;;;8.93;8.02;;;21.60;99.90;;;;;;4970348;28;20132;-68
2022/06/24 11:37:56;;;;;;;8.95;8.05;;;21.60;99.90;;;;;;4990081;28;20030;-68
2022/06/24 11:40:27;;;;;;;9.02;7.60;;;21.60;99.90;;;;;;4991794;28;20183;-68
2022/06/24 11:42:53;;;;;;;;;;;21.60;99.90;;;;;;4966337;28;20130;-68
2022/06/24 11:45:39;;;;;;;9.73;8.13;;;21.50;99.90;;;;;;4982222;28;20004;-68
2022/06/24 11:48:06;;;;;;;10.77;8.30;;;21.50;99.90;;;;;;4969127;28;20482;-68
2022/06/24 11:50:33;;;;;;;11.18;8.93;;;21.40;99.90;;;;;;4990210;28;20039;-67
2022/06/24 11:53:00;;;;;;;11.30;8.73;;;21.50;99.90;;;;;;4991837;28;20042;-67
2022/06/24 11:55:35;;;;;;;12.38;9.77;;;21.50;99.90;;;;;;4970625;28;20034;-66
2022/06/24 11:58:03;;;;;;;10.18;8.80;;;21.60;99.90;;;;;;4966983;28;20052;-68
2022/06/24 12:00:35;;;;;;;10.13;9.13;;;21.80;99.90;;;;;;4989240;28;20050;-68
2022/06/24 12:03:03;;;;;;;11.02;8.65;;;21.90;99.90;;;;;;4987117;28;20097;-68
2022/06/24 12:05:30;;;;;;;10.10;9.20;;;21.70;99.90;;;;;;4988736;28;20077;-68
2022/06/24 12:07:57;;;;;;;9.70;8.70;;;21.80;99.90;;;;;;4989647;28;20050;-68
2022/06/24 12:10:23;;;;;;;13.02;11.50;;;22.10;99.90;;;;;;4986749;28;20056;-67
2022/06/24 12:13:05;;;;;;;13.02;11.10;;;22.10;99.90;;;;;;4980413;28;20037;-68
2022/06/24 12:15:31;;;;;;;15.15;11.05;;;22.00;99.90;;;;;;4970460;28;20522;-68
2022/06/24 12:17:57;;;;;;;13.95;12.35;;;22.20;99.90;;;;;;4995329;28;20034;-68
2022/06/24 12:20:25;;;;;;;14.73;13.32;;;22.20;99.90;;;;;;5004866;28;20495;-67
2022/06/24 12:23:14;;;;;;;15.02;11.95;;;22.30;99.90;;;;;;4964229;28;20089;-66
2022/06/24 12:25:42;;;;;;;13.57;12.15;;;22.50;99.90;;;;;;4986538;28;20038;-67
2022/06/24 12:28:17;;;;;;;14.95;12.40;;;22.70;99.90;;;;;;4984491;28;20046;-67
2022/06/24 12:30:58;;;;;;;15.25;12.98;;;23.00;99.90;;;;;;4996995;28;20046;-67
2022/06/24 12:33:24;;;;;;;13.43;12.02;;;23.20;99.90;;;;;;5005950;28;20574;-68
2022/06/24 12:36:12;;;;;;;15.30;13.40;;;23.20;99.90;;;;;;4990872;28;20372;-68
2022/06/24 12:38:53;;;;;;;15.98;12.52;;;23.20;99.90;;;;;;4978875;28;20086;-67
2022/06/24 12:41:20;;;;;;;15.15;13.52;;;23.00;99.90;;;;;;4988810;28;20047;-68
2022/06/24 12:43:54;;;;;;;14.23;12.82;;;23.20;99.90;;;;;;4973809;28;20085;-67
2022/06/24 12:46:22;;;;;;;15.02;11.38;;;23.60;99.90;;;;;;4985726;28;20041;-67
2022/06/24 12:51:48;;;;;;;15.65;12.30;;;23.80;99.90;;;;;;4992583;28;20491;-67
2022/06/24 12:54:15;;;;;;;15.68;12.55;;;23.70;99.90;;;;;;4991356;28;20041;-67
2022/06/24 12:56:42;;;;;;;12.98;11.63;;;23.50;99.90;;;;;;4984685;28;20523;-67
2022/06/24 12:59:08;;;;;;;13.70;12.13;;;23.60;99.90;;;;;;4993265;28;20030;-68
2022/06/24 13:01:42;;;;;;;12.13;11.00;;;23.70;99.90;;;;;;4975019;28;20049;-67
2022/06/24 13:04:09;;;;;;;13.43;12.13;;;24.10;99.90;;;;;;4992369;28;20105;-66
2022/06/24 13:06:35;;;;;;;13.52;12.13;;;24.30;99.90;;;;;;4986745;28;20050;-67
2022/06/24 13:09:01;;;;;;;17.60;14.02;;;24.30;99.90;;;;;;4993391;28;20208;-67
2022/06/24 13:11:27;;;;;;;15.13;13.13;;;24.40;99.90;;;;;;4989148;28;20046;-66
2022/06/24 13:13:53;;;;;;;13.93;12.63;;;24.60;99.90;;;;;;4998557;28;20045;-67
2022/06/24 13:16:18;;;;;;;14.32;12.57;;;24.70;99.90;;;;;;4993443;28;20038;-67
2022/06/24 13:18:44;;;;;;;13.70;11.95;;;24.80;99.90;;;;;;4983075;28;20069;-67
2022/06/24 13:21:10;;;;;;;13.50;11.90;;;24.90;99.90;;;;;;4966156;28;20085;-67
2022/06/24 13:23:35;;;;;;;13.40;12.00;;;24.70;99.90;;;;;;4993001;28;20117;-67
2022/06/24 13:26:01;;;;;;;12.90;11.60;;;24.90;99.90;;;;;;4993209;28;20042;-67
2022/06/24 13:28:27;;;;;;;12.85;11.55;;;25.00;99.90;;;;;;4989767;28;20042;-67
2022/06/24 13:30:52;;;;;;;15.18;12.25;;;25.30;99.90;;;;;;4999736;28;20088;-68
2022/06/24 13:33:18;;;;;;;13.48;11.85;;;25.70;99.90;;;;;;4992726;28;20038;-67
2022/06/24 13:35:44;;;;;;;13.93;12.50;;;25.90;99.90;;;;;;4987459;28;20494;-67
2022/06/24 13:38:10;;;;;;;15.35;13.57;;;25.80;99.90;;;;;;4992331;28;20031;-66
2022/06/24 13:40:36;;;;;;;14.70;13.13;;;25.90;99.90;;;;;;5007566;28;20034;-67
2022/06/24 13:43:02;;;;;;;15.85;13.93;;;26.20;99.90;;;;;;5006907;28;20037;-67
2022/06/24 13:45:28;;;;;;;15.73;14.13;;;26.50;99.90;;;;;;4992017;28;20042;-66
2022/06/24 13:47:54;;;;;;;15.75;14.18;;;26.60;99.90;;;;;;4975434;28;20129;-66
2022/06/24 13:54:01;;;;;;;;;;;26.10;99.90;;;;;;4997112;28;20070;-66
2022/06/24 13:56:27;;;;;;;16.10;14.40;;;25.70;99.90;;;;;;4978560;28;19917;-67
2022/06/24 13:58:53;;;;;;;15.32;13.82;;;26.00;99.90;;;;;;4993519;28;20034;-66
2022/06/24 14:01:19;;;;;;;14.35;12.82;;;26.40;99.90;;;;;;4986439;28;20093;-65
2022/06/24 14:03:45;;;;;;;16.27;14.75;;;26.80;99.90;;;;;;4974864;28;20643;-66
2022/06/24 14:06:11;;;;;;;17.75;16.00;;;27.10;99.90;;;;;;4991590;28;20073;-66
2022/06/24 14:08:36;;;;;;;18.70;15.52;;;27.40;99.90;;;;;;4983958;28;20067;-65